createdAt,value
2023-04-08T00:01:46.093Z,6.00
2023-04-08T00:04:14.509Z,5.60
2023-04-08T00:06:41.592Z,5.30
2023-04-08T00:09:08.255Z,5.40
2023-04-08T00:11:34.965Z,5.77
2023-04-08T00:14:04.008Z,5.27
2023-04-08T00:16:30.869Z,5.73
2023-04-08T00:18:57.588Z,6.20
2023-04-08T00:21:24.517Z,6.00
2023-04-08T00:23:51.128Z,6.40
2023-04-08T00:26:17.774Z,5.97
2023-04-08T00:28:45.171Z,6.83
2023-04-08T00:31:11.925Z,6.30
2023-04-08T00:33:38.712Z,6.53
2023-04-08T00:36:05.589Z,6.70
2023-04-08T00:38:32.365Z,6.70
2023-04-08T00:40:59.139Z,7.00
2023-04-08T00:43:26.060Z,6.90
2023-04-08T00:45:52.773Z,7.80
2023-04-08T00:48:19.872Z,7.43
2023-04-08T00:50:47.365Z,7.47
2023-04-08T00:53:18.912Z,7.53
2023-04-08T00:55:45.845Z,7.17
2023-04-08T00:58:14.019Z,6.40
2023-04-08T01:00:44.416Z,7.40
2023-04-08T01:03:24.676Z,6.60
2023-04-08T01:05:54.542Z,7.90
2023-04-08T01:08:22.211Z,7.77
2023-04-08T01:10:54.195Z,7.40
2023-04-08T01:13:24.437Z,8.03
2023-04-08T01:15:51.271Z,7.40
2023-04-08T01:18:18.690Z,7.30
2023-04-08T01:20:45.908Z,8.30
2023-04-08T01:23:38.300Z,8.13
2023-04-08T01:26:05.393Z,8.03
2023-04-08T01:28:33.150Z,8.13
2023-04-08T01:31:01.098Z,8.20
2023-04-08T01:33:28.954Z,7.63
2023-04-08T01:35:56.956Z,7.47
2023-04-08T01:38:25.957Z,7.50
2023-04-08T01:40:53.661Z,8.00
2023-04-08T01:43:20.635Z,8.20
2023-04-08T01:45:48.373Z,8.53
2023-04-08T01:48:15.877Z,8.50
2023-04-08T01:50:43.650Z,8.57
2023-04-08T01:53:12.939Z,7.87
2023-04-08T01:55:41.054Z,8.57
2023-04-08T01:58:09.413Z,9.00
2023-04-08T02:00:36.970Z,8.57
2023-04-08T02:03:08.154Z,9.67
2023-04-08T02:05:35.110Z,8.53
2023-04-08T02:08:02.825Z,8.60
2023-04-08T02:10:29.540Z,9.00
2023-04-08T02:12:56.996Z,8.67
2023-04-08T02:15:25.282Z,8.80
2023-04-08T02:17:55.848Z,8.83
2023-04-08T02:20:24.531Z,8.10
2023-04-08T02:23:08.362Z,9.40
2023-04-08T02:25:39.015Z,8.50
2023-04-08T02:28:08.276Z,7.97
2023-04-08T02:30:37.621Z,8.40
2023-04-08T02:33:05.788Z,7.43
2023-04-08T02:35:32.647Z,7.93
2023-04-08T02:37:59.609Z,8.57
2023-04-08T02:40:35.550Z,7.40
2023-04-08T02:43:03.850Z,6.73
2023-04-08T02:45:33.132Z,6.93
2023-04-08T02:48:01.547Z,6.60
2023-04-08T02:50:28.388Z,6.57
2023-04-08T02:52:56.007Z,7.23
2023-04-08T02:55:22.782Z,6.57
2023-04-08T02:57:49.571Z,6.67
2023-04-08T03:00:17.420Z,6.57
2023-04-08T03:02:44.246Z,7.10
2023-04-08T03:05:11.528Z,6.40
2023-04-08T03:07:38.560Z,6.33
2023-04-08T03:10:06.264Z,6.20
2023-04-08T03:12:33.135Z,6.87
2023-04-08T03:15:00.955Z,6.30
2023-04-08T03:17:27.843Z,6.70
2023-04-08T03:19:54.685Z,6.50
2023-04-08T03:22:21.391Z,5.80
2023-04-08T03:24:48.158Z,5.93
2023-04-08T03:27:14.784Z,6.93
2023-04-08T03:29:41.560Z,6.40
2023-04-08T03:32:08.263Z,6.47
2023-04-08T03:34:35.620Z,7.00
2023-04-08T03:37:02.530Z,6.67
2023-04-08T03:39:29.236Z,6.50
2023-04-08T03:41:55.890Z,6.77
2023-04-08T03:44:22.752Z,5.77
2023-04-08T03:46:49.377Z,6.83
2023-04-08T03:49:16.023Z,6.63
2023-04-08T03:51:42.631Z,6.10
2023-04-08T03:54:09.343Z,7.53
2023-04-08T03:56:35.962Z,6.53
2023-04-08T03:59:02.824Z,6.67
2023-04-08T04:01:30.856Z,7.03
2023-04-08T04:03:57.815Z,7.07
2023-04-08T04:06:24.900Z,6.90
2023-04-08T04:08:53.925Z,7.70
2023-04-08T04:11:21.955Z,7.53
2023-04-08T04:13:49.170Z,7.27
2023-04-08T04:16:15.935Z,7.10
2023-04-08T04:18:42.868Z,7.33
2023-04-08T04:21:09.825Z,6.77
2023-04-08T04:23:36.502Z,6.87
2023-04-08T04:26:08.399Z,7.27
2023-04-08T04:28:34.985Z,7.03
2023-04-08T04:31:01.712Z,7.30
2023-04-08T04:33:28.412Z,7.20
2023-04-08T04:35:55.106Z,6.90
2023-04-08T04:38:21.741Z,8.40
2023-04-08T04:40:48.595Z,8.07
2023-04-08T04:43:15.327Z,8.10
2023-04-08T04:45:42.009Z,7.57
2023-04-08T04:48:08.646Z,8.40
2023-04-08T04:50:35.336Z,8.53
2023-04-08T04:53:01.946Z,8.50
2023-04-08T04:55:28.741Z,7.80
2023-04-08T04:57:55.359Z,8.10
2023-04-08T05:00:21.996Z,7.47
2023-04-08T05:02:48.889Z,8.23
2023-04-08T05:05:16.214Z,7.60
2023-04-08T05:07:42.819Z,8.20
2023-04-08T05:10:11.038Z,8.50
2023-04-08T05:12:38.920Z,7.90
2023-04-08T05:15:06.557Z,7.67
2023-04-08T05:17:33.348Z,8.67
2023-04-08T05:20:00.331Z,8.67
2023-04-08T05:22:27.011Z,9.10
2023-04-08T05:24:53.603Z,8.60
2023-04-08T05:27:21.710Z,8.80
2023-04-08T05:29:48.684Z,10.20
2023-04-08T05:32:16.961Z,8.33
2023-04-08T05:34:44.087Z,8.20
2023-04-08T05:37:11.053Z,8.97
2023-04-08T05:39:37.787Z,8.90
2023-04-08T05:42:04.442Z,9.43
2023-04-08T05:44:31.170Z,8.77
2023-04-08T05:46:58.336Z,8.80
2023-04-08T05:49:25.069Z,9.00
2023-04-08T05:51:51.728Z,8.67
2023-04-08T05:54:21.270Z,8.80
2023-04-08T05:56:48.919Z,8.80
2023-04-08T05:59:15.828Z,9.07
2023-04-08T06:01:42.692Z,10.00
2023-04-08T06:04:09.647Z,9.67
2023-04-08T06:06:39.045Z,9.50
2023-04-08T06:09:05.947Z,9.63
2023-04-08T06:11:32.610Z,9.60
2023-04-08T06:13:59.238Z,9.50
2023-04-08T06:16:25.981Z,10.60
2023-04-08T06:18:53.025Z,9.80
2023-04-08T06:21:19.932Z,10.47
2023-04-08T06:23:46.544Z,11.30
2023-04-08T06:26:13.433Z,9.93
2023-04-08T06:28:40.426Z,10.10
2023-04-08T06:31:07.105Z,9.30
2023-04-08T06:33:36.109Z,10.63
2023-04-08T06:36:04.056Z,10.83
2023-04-08T06:38:31.959Z,11.80
2023-04-08T06:41:08.223Z,12.13
2023-04-08T06:43:35.553Z,12.80
2023-04-08T06:46:02.174Z,12.60
2023-04-08T06:48:30.560Z,13.40
2023-04-08T06:50:58.135Z,13.03
2023-04-08T06:53:25.598Z,13.50
2023-04-08T06:55:52.541Z,13.27
2023-04-08T06:58:19.181Z,13.87
2023-04-08T07:00:45.877Z,14.83
2023-04-08T07:03:12.847Z,12.93
2023-04-08T07:05:39.705Z,13.50
2023-04-08T07:08:06.616Z,14.00
2023-04-08T07:10:34.928Z,13.60
2023-04-08T07:13:01.900Z,14.43
2023-04-08T07:15:28.566Z,14.20
2023-04-08T07:17:58.870Z,14.07
2023-04-08T07:20:26.078Z,12.00
2023-04-08T07:22:52.767Z,13.70
2023-04-08T07:25:19.446Z,12.20
2023-04-08T07:27:46.189Z,13.00
2023-04-08T07:30:12.829Z,13.90
2023-04-08T07:32:39.600Z,12.20
2023-04-08T07:35:06.552Z,13.50
2023-04-08T07:37:33.239Z,14.03
2023-04-08T07:39:59.879Z,12.47
2023-04-08T07:42:27.319Z,12.77
2023-04-08T07:44:54.048Z,11.73
2023-04-08T07:47:21.147Z,11.37
2023-04-08T07:49:48.406Z,13.60
2023-04-08T07:52:15.698Z,12.43
2023-04-08T07:54:42.336Z,12.63
2023-04-08T07:57:08.990Z,13.63
2023-04-08T07:59:36.168Z,12.97
2023-04-08T08:02:03.353Z,12.03
2023-04-08T08:04:30.280Z,12.50
2023-04-08T08:06:57.258Z,13.30
2023-04-08T08:09:23.955Z,12.47
2023-04-08T08:11:50.852Z,12.60
2023-04-08T08:14:17.545Z,11.93
2023-04-08T08:16:44.743Z,12.43
2023-04-08T08:19:12.431Z,12.10
2023-04-08T08:21:39.662Z,12.60
2023-04-08T08:24:07.020Z,11.87
2023-04-08T08:26:37.059Z,12.73
2023-04-08T08:29:08.612Z,12.73
2023-04-08T08:31:35.773Z,13.10
2023-04-08T08:34:02.932Z,12.13
2023-04-08T08:36:29.608Z,12.93
2023-04-08T08:38:56.386Z,13.90
2023-04-08T08:41:25.906Z,14.07
2023-04-08T08:43:52.871Z,13.17
2023-04-08T08:46:19.684Z,13.17
2023-04-08T08:48:46.592Z,13.73
2023-04-08T08:51:14.721Z,12.87
2023-04-08T08:53:45.683Z,13.63
2023-04-08T08:58:42.577Z,12.93
2023-04-08T09:01:35.597Z,14.10
2023-04-08T09:04:17.317Z,12.57
2023-04-08T09:06:46.616Z,13.37
2023-04-08T09:09:13.832Z,12.60
2023-04-08T09:11:42.429Z,13.10
2023-04-08T09:14:22.547Z,12.73
2023-04-08T09:16:52.018Z,13.07
2023-04-08T09:19:21.892Z,13.00
2023-04-08T09:22:05.877Z,13.03
2023-04-08T09:24:32.644Z,13.00
2023-04-08T09:26:59.410Z,13.80
2023-04-08T09:29:32.422Z,15.02
2023-04-08T09:32:01.865Z,14.10
2023-04-08T09:34:29.728Z,13.10
2023-04-08T09:36:56.765Z,12.27
2023-04-08T09:39:24.048Z,12.90
2023-04-08T09:41:53.222Z,12.97
2023-04-08T09:44:22.163Z,13.80
2023-04-08T09:47:01.433Z,13.27
2023-04-08T09:49:50.176Z,12.90
2023-04-08T09:52:35.620Z,13.30
2023-04-08T09:55:06.620Z,14.90
2023-04-08T09:57:56.670Z,13.70
2023-04-08T10:00:31.719Z,13.77
2023-04-08T10:03:01.917Z,13.67
2023-04-08T10:05:29.641Z,15.30
2023-04-08T10:07:56.954Z,13.47
2023-04-08T10:10:24.660Z,13.30
2023-04-08T10:13:00.982Z,13.20
2023-04-08T10:24:08.117Z,13.03
2023-04-08T10:35:17.406Z,12.70
2023-04-08T10:37:44.349Z,12.63
2023-04-08T10:40:20.566Z,13.80
2023-04-08T10:42:48.076Z,14.07
2023-04-08T10:45:18.286Z,13.27
2023-04-08T10:47:46.672Z,13.50
2023-04-08T10:50:14.976Z,12.60
2023-04-08T10:52:52.484Z,13.80
2023-04-08T10:55:26.670Z,13.53
2023-04-08T10:57:54.486Z,13.00
2023-04-08T11:00:36.855Z,14.30
2023-04-08T11:03:05.196Z,12.97
2023-04-08T11:05:32.952Z,12.70
2023-04-08T11:08:00.531Z,13.27
2023-04-08T11:10:28.752Z,12.70
2023-04-08T11:12:56.695Z,11.80
2023-04-08T11:15:38.099Z,12.60
2023-04-08T11:18:07.876Z,14.00
2023-04-08T11:20:40.478Z,13.07
2023-04-08T11:23:23.061Z,12.67
2023-04-08T11:25:50.004Z,11.93
2023-04-08T11:28:16.996Z,13.03
2023-04-08T11:30:44.110Z,12.30
2023-04-08T11:33:13.423Z,12.90
2023-04-08T11:35:44.609Z,13.67
2023-04-08T11:38:12.164Z,13.20
2023-04-08T11:40:56.312Z,13.07
2023-04-08T11:43:23.499Z,12.90
2023-04-08T11:46:10.912Z,12.43
2023-04-08T11:48:43.081Z,13.30
2023-04-08T11:51:09.869Z,12.30
2023-04-08T11:53:39.428Z,12.87
2023-04-08T11:56:17.363Z,14.07
2023-04-08T11:58:44.215Z,12.93
2023-04-08T12:01:11.279Z,11.73
2023-04-08T12:03:42.679Z,12.93
2023-04-08T12:06:09.656Z,12.63
2023-04-08T12:08:36.609Z,13.10
2023-04-08T12:11:16.552Z,13.40
2023-04-08T12:13:46.135Z,13.73
2023-04-08T12:16:12.919Z,13.50
2023-04-08T12:18:45.119Z,12.60
2023-04-08T12:21:11.874Z,12.47
2023-04-08T12:23:41.807Z,12.97
2023-04-08T12:26:17.209Z,12.73
2023-04-08T12:28:43.925Z,12.80
2023-04-08T12:31:15.500Z,13.10
2023-04-08T12:33:47.663Z,12.40
2023-04-08T12:36:14.390Z,13.60
2023-04-08T12:38:43.782Z,13.90
2023-04-08T12:41:10.577Z,14.30
2023-04-08T12:43:37.696Z,14.80
2023-04-08T12:46:05.863Z,14.83
2023-04-08T12:48:37.190Z,14.07
2023-04-08T12:51:03.916Z,15.50
2023-04-08T12:53:30.564Z,13.43
2023-04-08T12:55:57.639Z,13.60
2023-04-08T12:58:25.397Z,13.33
2023-04-08T13:00:52.191Z,14.77
2023-04-08T13:03:19.104Z,14.00
2023-04-08T13:05:55.717Z,16.30
2023-04-08T13:08:23.275Z,17.00
2023-04-08T13:10:50.442Z,15.50
2023-04-08T13:13:24.703Z,14.53
2023-04-08T13:15:52.292Z,15.20
2023-04-08T13:18:18.974Z,13.97
2023-04-08T13:20:45.912Z,14.83
2023-04-08T13:23:14.529Z,15.63
2023-04-08T13:25:41.768Z,15.00
2023-04-08T13:28:08.737Z,13.80
2023-04-08T13:30:35.752Z,14.03
2023-04-08T13:33:02.447Z,14.50
2023-04-08T13:35:29.178Z,14.40
2023-04-08T13:37:56.096Z,13.40
2023-04-08T13:40:22.761Z,13.83
2023-04-08T13:42:49.403Z,14.87
2023-04-08T13:45:16.026Z,13.87
2023-04-08T13:47:45.008Z,13.90
2023-04-08T13:50:19.539Z,14.10
2023-04-08T13:52:46.600Z,14.07
2023-04-08T13:55:16.218Z,14.27
2023-04-08T13:57:52.138Z,13.70
2023-04-08T14:00:18.816Z,14.53
2023-04-08T14:02:47.276Z,14.13
2023-04-08T14:05:25.602Z,13.57
2023-04-08T14:07:52.341Z,13.57
2023-04-08T14:10:19.072Z,14.53
2023-04-08T14:12:51.000Z,14.10
2023-04-08T14:15:17.719Z,15.07
2023-04-08T14:17:47.559Z,14.70
2023-04-08T14:20:24.721Z,14.60
2023-04-08T14:22:51.362Z,13.33
2023-04-08T14:25:20.004Z,13.57
2023-04-08T14:27:57.962Z,13.50
2023-04-08T14:30:26.901Z,14.40
2023-04-08T14:32:54.486Z,14.50
2023-04-08T14:35:24.626Z,14.90
2023-04-08T14:37:51.284Z,15.33
2023-04-08T14:40:18.050Z,13.87
2023-04-08T14:42:45.575Z,15.00
2023-04-08T14:45:14.472Z,13.80
2023-04-08T14:47:46.751Z,14.50
2023-04-08T14:50:16.803Z,14.97
2023-04-08T14:52:45.314Z,14.07
2023-04-08T14:55:18.265Z,14.07
2023-04-08T14:57:48.024Z,14.23
2023-04-08T15:00:15.016Z,14.10
2023-04-08T15:02:47.977Z,14.80
2023-04-08T15:05:14.651Z,14.00
2023-04-08T15:07:41.957Z,14.70
2023-04-08T15:10:09.380Z,14.23
2023-04-08T15:12:36.454Z,14.60
2023-04-08T15:15:04.570Z,15.07
2023-04-08T15:17:31.354Z,14.50
2023-04-08T15:19:58.789Z,14.43
2023-04-08T15:22:34.334Z,13.47
2023-04-08T15:25:03.861Z,13.70
2023-04-08T15:27:31.339Z,14.10
2023-04-08T15:30:06.303Z,16.90
2023-04-08T15:32:33.138Z,16.10
2023-04-08T15:35:00.654Z,15.37
2023-04-08T15:37:38.037Z,16.17
2023-04-08T15:40:07.620Z,15.03
2023-04-08T15:42:35.653Z,14.10
2023-04-08T15:45:07.969Z,14.50
2023-04-08T15:47:35.305Z,15.50
2023-04-08T15:50:02.230Z,17.23
2023-04-08T15:52:29.168Z,15.50
2023-04-08T15:54:55.836Z,15.37
2023-04-08T15:57:26.734Z,15.93
2023-04-08T15:59:53.658Z,16.03
2023-04-08T16:02:23.163Z,14.40
2023-04-08T16:04:52.142Z,14.67
2023-04-08T16:07:19.109Z,16.10
2023-04-08T16:09:45.990Z,15.93
2023-04-08T16:12:14.765Z,16.40
2023-04-08T16:14:41.438Z,14.97
2023-04-08T16:17:10.680Z,15.30
2023-04-08T16:19:37.767Z,14.07
2023-04-08T16:22:04.517Z,15.00
2023-04-08T16:24:31.230Z,15.50
2023-04-08T16:26:57.878Z,15.37
2023-04-08T16:29:24.663Z,15.67
2023-04-08T16:31:53.415Z,17.37
2023-04-08T16:34:23.190Z,17.70
2023-04-08T16:36:49.988Z,16.30
2023-04-08T16:39:16.696Z,16.20
2023-04-08T16:41:43.650Z,19.17
2023-04-08T16:44:12.530Z,19.60
2023-04-08T16:46:39.280Z,18.00
2023-04-08T16:49:06.035Z,18.20
2023-04-08T16:51:32.654Z,21.23
2023-04-08T16:53:59.775Z,24.07
2023-04-08T16:56:27.174Z,23.10
2023-04-08T16:58:53.921Z,23.40
2023-04-08T17:01:20.967Z,21.83
2023-04-08T17:03:48.816Z,15.73
2023-04-08T17:06:15.762Z,16.50
2023-04-08T17:08:45.906Z,15.43
2023-04-08T17:11:14.544Z,15.13
2023-04-08T17:13:42.916Z,14.93
2023-04-08T17:16:17.157Z,15.30
2023-04-08T17:18:44.800Z,15.80
2023-04-08T17:21:12.466Z,15.07
2023-04-08T17:23:39.177Z,16.40
2023-04-08T17:26:11.920Z,14.93
2023-04-08T17:28:39.303Z,19.23
2023-04-08T17:31:06.345Z,23.33
2023-04-08T17:33:50.616Z,26.50
2023-04-08T17:36:17.991Z,25.00
2023-04-08T17:38:44.894Z,21.70
2023-04-08T17:41:13.390Z,22.37
2023-04-08T17:43:42.497Z,23.43
2023-04-08T17:46:09.255Z,23.33
2023-04-08T17:48:36.633Z,23.73
2023-04-08T17:51:05.683Z,21.87
2023-04-08T17:53:38.829Z,20.57
2023-04-08T17:56:09.197Z,20.40
2023-04-08T17:58:36.079Z,22.60
2023-04-08T18:01:05.555Z,25.47
2023-04-08T18:03:35.238Z,31.90
2023-04-08T18:06:04.084Z,30.57
2023-04-08T18:08:33.349Z,27.80
2023-04-08T18:11:00.048Z,28.80
2023-04-08T18:13:26.764Z,28.10
2023-04-08T18:15:53.580Z,24.73
2023-04-08T18:18:22.010Z,26.67
2023-04-08T18:20:52.418Z,21.30
2023-04-08T18:23:19.270Z,22.37
2023-04-08T18:25:46.768Z,25.90
2023-04-08T18:28:13.673Z,27.00
2023-04-08T18:30:40.732Z,26.80
2023-04-08T18:33:07.684Z,27.53
2023-04-08T18:35:34.575Z,25.70
2023-04-08T18:38:01.282Z,24.80
2023-04-08T18:40:28.084Z,26.03
2023-04-08T18:42:54.810Z,24.20
2023-04-08T18:45:21.557Z,26.50
2023-04-08T18:47:48.323Z,25.20
2023-04-08T18:50:15.088Z,24.23
2023-04-08T18:52:41.952Z,25.30
2023-04-08T18:55:08.960Z,23.53
2023-04-08T18:57:35.860Z,22.87
2023-04-08T19:00:02.609Z,23.43
2023-04-08T19:02:29.408Z,23.57
2023-04-08T19:04:56.389Z,23.27
2023-04-08T19:07:23.404Z,22.87
2023-04-08T19:09:50.034Z,23.27
2023-04-08T19:12:16.784Z,22.53
2023-04-08T19:14:43.517Z,24.33
2023-04-08T19:17:11.079Z,23.33
2023-04-08T19:19:38.903Z,25.17
2023-04-08T19:22:06.109Z,23.00
2023-04-08T19:24:33.316Z,23.47
2023-04-08T19:27:00.538Z,23.30
2023-04-08T19:29:29.745Z,22.97
2023-04-08T19:31:57.413Z,22.07
2023-04-08T19:34:24.157Z,22.93
2023-04-08T19:36:50.892Z,23.37
2023-04-08T19:39:18.535Z,23.90
2023-04-08T19:41:45.667Z,24.70
2023-04-08T19:44:14.570Z,23.80
2023-04-08T19:46:41.328Z,23.07
2023-04-08T19:49:08.074Z,23.07
2023-04-08T19:51:34.770Z,21.70
2023-04-08T19:54:01.540Z,22.60
2023-04-08T19:56:32.482Z,22.23
2023-04-08T19:58:59.775Z,22.57
2023-04-08T20:01:26.602Z,23.70
2023-04-08T20:03:53.463Z,25.03
2023-04-08T20:06:20.720Z,23.57
2023-04-08T20:08:49.203Z,22.77
2023-04-08T20:11:16.120Z,22.00
2023-04-08T20:13:43.156Z,23.07
2023-04-08T20:16:09.837Z,22.63
2023-04-08T20:18:36.575Z,22.93
2023-04-08T20:21:03.513Z,22.43
2023-04-08T20:23:33.425Z,22.20
2023-04-08T20:26:00.142Z,22.63
2023-04-08T20:28:27.184Z,22.03
2023-04-08T20:30:54.171Z,22.70
2023-04-08T20:33:21.087Z,20.63
2023-04-08T20:35:50.553Z,20.47
2023-04-08T20:38:17.640Z,21.67
2023-04-08T20:40:44.829Z,20.90
2023-04-08T20:43:11.736Z,20.00
2023-04-08T20:45:38.333Z,22.03
2023-04-08T20:48:05.829Z,21.30
2023-04-08T20:50:32.884Z,21.40
2023-04-08T20:52:59.813Z,21.40
2023-04-08T20:55:26.477Z,22.20
2023-04-08T20:57:53.160Z,23.40
2023-04-08T21:00:19.959Z,22.97
2023-04-08T21:02:47.987Z,21.30
2023-04-08T21:05:14.998Z,21.03
2023-04-08T21:07:44.486Z,21.97
2023-04-08T21:10:12.650Z,21.33
2023-04-08T21:12:39.328Z,20.97
2023-04-08T21:15:06.242Z,20.50
2023-04-08T21:17:32.965Z,20.70
2023-04-08T21:19:59.652Z,20.60
2023-04-08T21:22:26.356Z,19.07
2023-04-08T21:24:53.003Z,20.73
2023-04-08T21:27:19.649Z,19.53
2023-04-08T21:29:46.265Z,18.83
2023-04-08T21:32:14.920Z,18.83
2023-04-08T21:34:41.932Z,18.40
2023-04-08T21:37:08.598Z,20.03
2023-04-08T21:39:35.337Z,18.50
2023-04-08T21:42:02.028Z,18.97
2023-04-08T21:44:31.472Z,19.70
2023-04-08T21:47:00.406Z,20.07
2023-04-08T21:49:29.813Z,18.53
2023-04-08T21:51:56.596Z,18.37
2023-04-08T21:54:23.433Z,18.37
2023-04-08T21:56:50.222Z,19.63
2023-04-08T21:59:16.854Z,18.57
2023-04-08T22:01:43.580Z,19.37
2023-04-08T22:04:10.346Z,19.63
2023-04-08T22:06:37.040Z,20.43
2023-04-08T22:09:03.935Z,19.60
2023-04-08T22:11:30.866Z,19.30
2023-04-08T22:13:57.627Z,19.07
2023-04-08T22:16:24.493Z,20.10
2023-04-08T22:18:51.471Z,18.80
2023-04-08T22:21:18.514Z,20.53
2023-04-08T22:23:46.090Z,23.00
2023-04-08T22:26:13.513Z,23.07
2023-04-08T22:28:41.997Z,25.57
2023-04-08T22:31:11.001Z,25.70
2023-04-08T22:33:41.560Z,27.40
2023-04-08T22:36:08.259Z,30.40
2023-04-08T22:38:35.596Z,29.57
2023-04-08T22:41:02.303Z,28.40
2023-04-08T22:43:28.935Z,26.57
2023-04-08T22:45:55.779Z,27.50
2023-04-08T22:48:22.413Z,27.83
2023-04-08T22:50:49.028Z,26.27
2023-04-08T22:53:15.791Z,26.33
2023-04-08T22:55:42.427Z,25.20
2023-04-08T22:58:09.053Z,25.10
2023-04-08T23:00:35.709Z,22.97
2023-04-08T23:03:04.781Z,24.00
2023-04-08T23:05:31.734Z,23.63
2023-04-08T23:07:58.477Z,23.57
2023-04-08T23:10:25.295Z,22.20
2023-04-08T23:12:51.927Z,22.83
2023-04-08T23:15:18.670Z,23.80
2023-04-08T23:17:45.359Z,23.00
2023-04-08T23:20:12.408Z,24.83
2023-04-08T23:22:39.026Z,23.67
2023-04-08T23:25:06.423Z,25.77
2023-04-08T23:27:33.104Z,25.30
2023-04-08T23:30:05.437Z,26.30
2023-04-08T23:32:35.720Z,24.07
2023-04-08T23:35:02.860Z,24.07
2023-04-08T23:37:29.610Z,25.87
2023-04-08T23:39:56.355Z,24.60
2023-04-08T23:42:27.208Z,23.93
2023-04-08T23:44:54.767Z,24.43
2023-04-08T23:47:21.721Z,23.83
2023-04-08T23:49:49.146Z,22.43
2023-04-08T23:52:15.867Z,23.40
2023-04-08T23:54:42.601Z,24.30
2023-04-08T23:57:09.196Z,24.27
2023-04-08T23:59:35.898Z,23.57
